sensor_id;sensor_type;location;lat;lon;timestamp;pressure;altitude;pressure_sealevel;temperature
60936;BMP280;46804;51.786;19.520;2023-06-01T00:02:44;157514.91;;;13.01
60936;BMP280;46804;51.786;19.520;2023-06-01T00:06:45;157508.47;;;12.99
60936;BMP280;46804;51.786;19.520;2023-06-01T00:10:46;157523.88;;;13.05
60936;BMP280;46804;51.786;19.520;2023-06-01T00:14:47;157512.28;;;13.00
60936;BMP280;46804;51.786;19.520;2023-06-01T00:18:48;157514.91;;;13.01
60936;BMP280;46804;51.786;19.520;2023-06-01T00:22:49;157514.91;;;13.01
60936;BMP280;46804;51.786;19.520;2023-06-01T00:26:50;157495.56;;;12.94
60936;BMP280;46804;51.786;19.520;2023-06-01T00:30:50;157507.16;;;12.98
60936;BMP280;46804;51.786;19.520;2023-06-01T00:34:53;157499.44;;;12.95
60936;BMP280;46804;51.786;19.520;2023-06-01T00:38:53;157499.44;;;12.95
60936;BMP280;46804;51.786;19.520;2023-06-01T00:42:55;157489.16;;;12.91
60936;BMP280;46804;51.786;19.520;2023-06-01T00:46:56;157459.59;;;12.80
60936;BMP280;46804;51.786;19.520;2023-06-01T00:50:59;157423.56;;;12.66
60936;BMP280;46804;51.786;19.520;2023-06-01T00:55:00;157413.28;;;12.62
60936;BMP280;46804;51.786;19.520;2023-06-01T00:59:01;157410.75;;;12.61
60936;BMP280;46804;51.786;19.520;2023-06-01T01:03:01;157403.00;;;12.58
60936;BMP280;46804;51.786;19.520;2023-06-01T01:13:16;157400.44;;;12.57
60936;BMP280;46804;51.786;19.520;2023-06-01T01:17:33;157391.44;;;12.54
60936;BMP280;46804;51.786;19.520;2023-06-01T01:21:42;157383.75;;;12.51
60936;BMP280;46804;51.786;19.520;2023-06-01T01:30:10;157345.16;;;12.36
60936;BMP280;46804;51.786;19.520;2023-06-01T01:34:12;157355.47;;;12.40
60936;BMP280;46804;51.786;19.520;2023-06-01T01:38:12;157336.16;;;12.33
60936;BMP280;46804;51.786;19.520;2023-06-01T01:42:13;157319.44;;;12.26
60936;BMP280;46804;51.786;19.520;2023-06-01T01:46:23;157311.75;;;12.23
60936;BMP280;46804;51.786;19.520;2023-06-01T01:50:31;157309.22;;;12.22
60936;BMP280;46804;51.786;19.520;2023-06-01T01:54:37;157296.31;;;12.18
60936;BMP280;46804;51.786;19.520;2023-06-01T01:58:39;157296.31;;;12.18
60936;BMP280;46804;51.786;19.520;2023-06-01T02:02:40;157298.94;;;12.19
60936;BMP280;46804;51.786;19.520;2023-06-01T02:06:41;157293.78;;;12.17
60936;BMP280;46804;51.786;19.520;2023-06-01T02:10:41;157278.34;;;12.11
60936;BMP280;46804;51.786;19.520;2023-06-01T02:14:43;157257.81;;;12.03
60936;BMP280;46804;51.786;19.520;2023-06-01T02:18:44;157255.22;;;12.02
60936;BMP280;46804;51.786;19.520;2023-06-01T02:22:46;157226.97;;;11.91
60936;BMP280;46804;51.786;19.520;2023-06-01T02:26:47;157237.25;;;11.95
60936;BMP280;46804;51.786;19.520;2023-06-01T02:30:54;157230.84;;;11.92
60936;BMP280;46804;51.786;19.520;2023-06-01T02:34:55;157238.53;;;11.95
60936;BMP280;46804;51.786;19.520;2023-06-01T02:38:55;157241.13;;;11.96
60936;BMP280;46804;51.786;19.520;2023-06-01T02:42:56;157243.66;;;11.97
60936;BMP280;46804;51.786;19.520;2023-06-01T02:46:57;157244.94;;;11.98
60936;BMP280;46804;51.786;19.520;2023-06-01T02:50:57;157232.09;;;11.93
60936;BMP280;46804;51.786;19.520;2023-06-01T02:54:58;157232.09;;;11.93
60936;BMP280;46804;51.786;19.520;2023-06-01T02:58:59;157235.97;;;11.94
60936;BMP280;46804;51.786;19.520;2023-06-01T03:03:00;157224.41;;;11.90
60936;BMP280;46804;51.786;19.520;2023-06-01T03:07:01;157252.69;;;12.01
60936;BMP280;46804;51.786;19.520;2023-06-01T03:11:01;157250.09;;;12.00
60936;BMP280;46804;51.786;19.520;2023-06-01T03:15:03;157260.38;;;12.04
60936;BMP280;46804;51.786;19.520;2023-06-01T03:19:05;157260.38;;;12.04
60936;BMP280;46804;51.786;19.520;2023-06-01T03:23:06;157282.22;;;12.12
60936;BMP280;46804;51.786;19.520;2023-06-01T03:27:07;157273.22;;;12.09
60936;BMP280;46804;51.786;19.520;2023-06-01T03:31:08;157298.94;;;12.19
60936;BMP280;46804;51.786;19.520;2023-06-01T03:35:12;157316.91;;;12.25
60936;BMP280;46804;51.786;19.520;2023-06-01T03:39:14;157334.88;;;12.32
60936;BMP280;46804;51.786;19.520;2023-06-01T03:43:16;157364.44;;;12.44
60936;BMP280;46804;51.786;19.520;2023-06-01T03:47:17;157386.28;;;12.52
60936;BMP280;46804;51.786;19.520;2023-06-01T03:51:18;157412.00;;;12.62
60936;BMP280;46804;51.786;19.520;2023-06-01T03:55:18;157432.53;;;12.70
60936;BMP280;46804;51.786;19.520;2023-06-01T03:59:20;157458.31;;;12.80
60936;BMP280;46804;51.786;19.520;2023-06-01T04:03:21;157490.50;;;12.92
60936;BMP280;46804;51.786;19.520;2023-06-01T04:07:22;157526.47;;;13.06
60936;BMP280;46804;51.786;19.520;2023-06-01T04:11:23;157572.75;;;13.23
60936;BMP280;46804;51.786;19.520;2023-06-01T04:15:24;157610.06;;;13.38
60936;BMP280;46804;51.786;19.520;2023-06-01T04:19:25;157661.50;;;13.57
60936;BMP280;46804;51.786;19.520;2023-06-01T04:23:26;157718.09;;;13.79
60936;BMP280;46804;51.786;19.520;2023-06-01T04:27:27;157770.88;;;13.99
60936;BMP280;46804;51.786;19.520;2023-06-01T04:31:28;157821.06;;;14.19
60936;BMP280;46804;51.786;19.520;2023-06-01T04:35:29;157876.41;;;14.40
60936;BMP280;46804;51.786;19.520;2023-06-01T04:39:34;157931.72;;;14.61
60936;BMP280;46804;51.786;19.520;2023-06-01T04:43:36;157985.78;;;14.82
60936;BMP280;46804;51.786;19.520;2023-06-01T04:47:39;158014.13;;;14.93
60936;BMP280;46804;51.786;19.520;2023-06-01T04:51:41;158055.31;;;15.08
60936;BMP280;46804;51.786;19.520;2023-06-01T04:55:41;158088.84;;;15.21
60936;BMP280;46804;51.786;19.520;2023-06-01T04:59:44;158117.16;;;15.32
60936;BMP280;46804;51.786;19.520;2023-06-01T05:03:45;158150.66;;;15.45
60936;BMP280;46804;51.786;19.520;2023-06-01T05:07:46;158191.84;;;15.61
60936;BMP280;46804;51.786;19.520;2023-06-01T05:11:47;158222.75;;;15.72
60936;BMP280;46804;51.786;19.520;2023-06-01T05:15:48;158274.31;;;15.92
60936;BMP280;46804;51.786;19.520;2023-06-01T05:19:49;158311.66;;;16.06
60936;BMP280;46804;51.786;19.520;2023-06-01T05:23:50;158349.09;;;16.21
60936;BMP280;46804;51.786;19.520;2023-06-01T05:27:50;158395.47;;;16.38
60936;BMP280;46804;51.786;19.520;2023-06-01T05:31:51;158443.16;;;16.57
60936;BMP280;46804;51.786;19.520;2023-06-01T05:35:52;158510.19;;;16.82
60936;BMP280;46804;51.786;19.520;2023-06-01T05:39:53;158568.19;;;17.04
60936;BMP280;46804;51.786;19.520;2023-06-01T05:43:54;158606.94;;;17.19
60936;BMP280;46804;51.786;19.520;2023-06-01T05:47:54;158670.13;;;17.43
60936;BMP280;46804;51.786;19.520;2023-06-01T05:51:55;158726.88;;;17.65
60936;BMP280;46804;51.786;19.520;2023-06-01T05:55:56;158779.72;;;17.85
60936;BMP280;46804;51.786;19.520;2023-06-01T05:59:57;158844.31;;;18.10
60936;BMP280;46804;51.786;19.520;2023-06-01T06:03:58;158912.72;;;18.36
60936;BMP280;46804;51.786;19.520;2023-06-01T06:07:58;159014.69;;;18.75
60936;BMP280;46804;51.786;19.520;2023-06-01T06:12:00;159130.91;;;19.19
60936;BMP280;46804;51.786;19.520;2023-06-01T06:16:02;159150.25;;;19.27
60936;BMP280;46804;51.786;19.520;2023-06-01T06:20:03;159203.22;;;19.47
60936;BMP280;46804;51.786;19.520;2023-06-01T06:24:07;159296.25;;;19.82
60936;BMP280;46804;51.786;19.520;2023-06-01T06:28:08;159459.06;;;20.44
60936;BMP280;46804;51.786;19.520;2023-06-01T06:32:09;159572.78;;;20.88
60936;BMP280;46804;51.786;19.520;2023-06-01T06:36:09;159673.66;;;21.26
60936;BMP280;46804;51.786;19.520;2023-06-01T06:40:11;159765.50;;;21.61
60936;BMP280;46804;51.786;19.520;2023-06-01T06:44:11;159922.09;;;22.21
60936;BMP280;46804;51.786;19.520;2023-06-01T06:48:12;159840.50;;;21.90
60936;BMP280;46804;51.786;19.520;2023-06-01T06:52:13;159958.28;;;22.35
60936;BMP280;46804;51.786;19.520;2023-06-01T06:56:13;160068.25;;;22.77
60936;BMP280;46804;51.786;19.520;2023-06-01T07:00:14;160047.59;;;22.69
60936;BMP280;46804;51.786;19.520;2023-06-01T07:04:15;160282.00;;;23.58
60936;BMP280;46804;51.786;19.520;2023-06-01T07:08:16;160382.97;;;23.96
60936;BMP280;46804;51.786;19.520;2023-06-01T07:12:16;160445.13;;;24.20
60936;BMP280;46804;51.786;19.520;2023-06-01T07:16:17;160453.00;;;24.23
60936;BMP280;46804;51.786;19.520;2023-06-01T07:20:18;160362.28;;;23.88
60936;BMP280;46804;51.786;19.520;2023-06-01T07:24:19;160550.16;;;24.60
60936;BMP280;46804;51.786;19.520;2023-06-01T07:28:19;160529.41;;;24.52
60936;BMP280;46804;51.786;19.520;2023-06-01T07:32:22;160509.94;;;24.45
60936;BMP280;46804;51.786;19.520;2023-06-01T07:36:22;159831.44;;;25.39
60936;BMP280;46804;51.786;19.520;2023-06-01T07:40:27;152990.16;;;25.97
60936;BMP280;46804;51.786;19.520;2023-06-01T07:44:28;147830.19;;;26.28
60936;BMP280;46804;51.786;19.520;2023-06-01T07:48:29;158222.94;;;25.59
60936;BMP280;46804;51.786;19.520;2023-06-01T07:52:29;158097.38;;;25.60
60936;BMP280;46804;51.786;19.520;2023-06-01T07:56:30;139442.31;;;26.80
60936;BMP280;46804;51.786;19.520;2023-06-01T08:00:31;135602.06;;;27.05
60936;BMP280;46804;51.786;19.520;2023-06-01T08:04:32;151602.50;;;26.04
60936;BMP280;46804;51.786;19.520;2023-06-01T08:08:33;152541.22;;;25.99
60936;BMP280;46804;51.786;19.520;2023-06-01T08:12:36;142936.75;;;26.59
60936;BMP280;46804;51.786;19.520;2023-06-01T08:16:37;132115.31;;;27.29
60936;BMP280;46804;51.786;19.520;2023-06-01T08:20:38;151916.47;;;26.03
60936;BMP280;46804;51.786;19.520;2023-06-01T08:24:39;160432.53;;;25.29
60936;BMP280;46804;51.786;19.520;2023-06-01T08:28:39;135256.78;;;27.09
60936;BMP280;46804;51.786;19.520;2023-06-01T08:32:40;138042.09;;;26.88
60936;BMP280;46804;51.786;19.520;2023-06-01T08:36:41;144683.44;;;26.47
60936;BMP280;46804;51.786;19.520;2023-06-01T08:40:42;150128.41;;;26.13
60936;BMP280;46804;51.786;19.520;2023-06-01T08:44:42;127932.63;;;27.57
60936;BMP280;46804;51.786;19.520;2023-06-01T08:48:43;126891.09;;;27.66
60936;BMP280;46804;51.786;19.520;2023-06-01T08:52:46;108118.28;;;29.03
60936;BMP280;46804;51.786;19.520;2023-06-01T08:56:47;108468.34;;;29.03
60936;BMP280;46804;51.786;19.520;2023-06-01T09:00:51;113677.56;;;28.63
60936;BMP280;46804;51.786;19.520;2023-06-01T09:04:54;115059.09;;;28.48
60936;BMP280;46804;51.786;19.520;2023-06-01T09:08:54;111242.38;;;28.79
60936;BMP280;46804;51.786;19.520;2023-06-01T09:12:55;108118.28;;;29.03
60936;BMP280;46804;51.786;19.520;2023-06-01T09:16:56;96334.81;;;30.01
60936;BMP280;46804;51.786;19.520;2023-06-01T09:21:13;91834.13;;;30.40
60936;BMP280;46804;51.786;19.520;2023-06-01T09:25:14;108812.34;;;28.98
60936;BMP280;46804;51.786;19.520;2023-06-01T09:29:16;115065.56;;;28.52
60936;BMP280;46804;51.786;19.520;2023-06-01T09:33:17;115060.94;;;28.49
60936;BMP280;46804;51.786;19.520;2023-06-01T09:37:20;101526.59;;;29.55
60936;BMP280;46804;51.786;19.520;2023-06-01T09:41:21;105340.00;;;29.24
60936;BMP280;46804;51.786;19.520;2023-06-01T09:45:23;87679.56;;;30.74
60936;BMP280;46804;51.786;19.520;2023-06-01T09:49:28;78004.28;;;31.65
60936;BMP280;46804;51.786;19.520;2023-06-01T09:53:42;76626.06;;;31.81
60936;BMP280;46804;51.786;19.520;2023-06-01T09:57:44;91485.78;;;30.41
60936;BMP280;46804;51.786;19.520;2023-06-01T10:01:47;78008.03;;;31.68
60936;BMP280;46804;51.786;19.520;2023-06-01T10:05:49;91831.91;;;30.38
60936;BMP280;46804;51.786;19.520;2023-06-01T10:09:55;94604.34;;;30.16
60936;BMP280;46804;51.786;19.520;2023-06-01T10:13:57;100491.47;;;29.66
60936;BMP280;46804;51.786;19.520;2023-06-01T10:18:05;84915.66;;;31.01
60936;BMP280;46804;51.786;19.520;2023-06-01T10:22:06;109160.72;;;28.96
60936;BMP280;46804;51.786;19.520;2023-06-01T10:26:11;109509.09;;;28.94
60936;BMP280;46804;51.786;19.520;2023-06-01T10:30:13;76972.44;;;31.78
60936;BMP280;46804;51.786;19.520;2023-06-01T10:34:14;86640.81;;;30.82
60936;BMP280;46804;51.786;19.520;2023-06-01T10:46:37;84570.38;;;31.04
60936;BMP280;46804;51.786;19.520;2023-06-01T10:50:40;83533.19;;;31.13
60936;BMP280;46804;51.786;19.520;2023-06-01T10:54:41;83187.91;;;31.17
60936;BMP280;46804;51.786;19.520;2023-06-01T10:58:42;78695.94;;;31.59
60936;BMP280;46804;51.786;19.520;2023-06-01T11:06:50;83878.44;;;31.10
60936;BMP280;46804;51.786;19.520;2023-06-01T11:15:08;79735.38;;;31.51
60936;BMP280;46804;51.786;19.520;2023-06-01T11:19:16;89757.34;;;30.57
60936;BMP280;46804;51.786;19.520;2023-06-01T11:23:18;76970.59;;;31.77
60936;BMP280;46804;51.786;19.520;2023-06-01T11:27:19;102913.91;;;29.44
60936;BMP280;46804;51.786;19.520;2023-06-01T11:31:20;79734.13;;;31.50
60936;BMP280;46804;51.786;19.520;2023-06-01T11:35:21;84565.63;;;31.01
60936;BMP280;46804;51.786;19.520;2023-06-01T11:39:27;78004.94;;;31.65
60936;BMP280;46804;51.786;19.520;2023-06-01T11:43:30;80422.66;;;31.42
60936;BMP280;46804;51.786;19.520;2023-06-01T11:47:31;72143.63;;;32.29
60936;BMP280;46804;51.786;19.520;2023-06-01T11:51:36;73524.28;;;32.16
60936;BMP280;46804;51.786;19.520;2023-06-01T11:55:48;61463.47;;;33.54
60936;BMP280;46804;51.786;19.520;2023-06-01T11:59:49;84569.00;;;31.03
60936;BMP280;46804;51.786;19.520;2023-06-01T12:03:50;76623.56;;;31.79
60936;BMP280;46804;51.786;19.520;2023-06-01T12:07:51;70424.19;;;32.52
60936;BMP280;46804;51.786;19.520;2023-06-01T12:11:52;100142.75;;;29.68
60936;BMP280;46804;51.786;19.520;2023-06-01T12:15:53;94253.59;;;30.16
60936;BMP280;46804;51.786;19.520;2023-06-01T12:19:54;78695.31;;;31.58
60936;BMP280;46804;51.786;19.520;2023-06-01T12:23:55;92178.06;;;30.35
60936;BMP280;46804;51.786;19.520;2023-06-01T12:28:04;67321.72;;;32.86
60936;BMP280;46804;51.786;19.520;2023-06-01T12:32:06;72144.81;;;32.30
60936;BMP280;46804;51.786;19.520;2023-06-01T12:36:08;75590.50;;;31.91
60936;BMP280;46804;51.786;19.520;2023-06-01T12:40:09;71457.38;;;32.40
60936;BMP280;46804;51.786;19.520;2023-06-01T12:44:17;73178.53;;;32.18
60936;BMP280;46804;51.786;19.520;2023-06-01T12:48:36;66634.13;;;32.96
60936;BMP280;46804;51.786;19.520;2023-06-01T12:52:38;70077.91;;;32.54
60936;BMP280;46804;51.786;19.520;2023-06-01T12:56:39;66633.59;;;32.95
60936;BMP280;46804;51.786;19.520;2023-06-01T13:00:40;74901.38;;;31.99
60936;BMP280;46804;51.786;19.520;2023-06-01T13:04:41;65596.63;;;33.04
60936;BMP280;46804;51.786;19.520;2023-06-01T13:08:42;71112.22;;;32.43
60936;BMP280;46804;51.786;19.520;2023-06-01T13:12:43;70769.34;;;32.49
60936;BMP280;46804;51.786;19.520;2023-06-01T13:16:43;70768.22;;;32.48
60936;BMP280;46804;51.786;19.520;2023-06-01T13:20:45;73865.31;;;32.09
60936;BMP280;46804;51.786;19.520;2023-06-01T13:24:45;73865.91;;;32.09
60936;BMP280;46804;51.786;19.520;2023-06-01T13:28:46;77313.94;;;31.72
60936;BMP280;46804;51.786;19.520;2023-06-01T13:32:47;61809.56;;;33.51
60936;BMP280;46804;51.786;19.520;2023-06-01T13:36:48;69733.31;;;32.58
60936;BMP280;46804;51.786;19.520;2023-06-01T13:40:49;65255.69;;;33.12
60936;BMP280;46804;51.786;19.520;2023-06-01T13:44:50;64909.00;;;33.14
60936;BMP280;46804;51.786;19.520;2023-06-01T13:48:51;71802.53;;;32.36
60936;BMP280;46804;51.786;19.520;2023-06-01T13:52:52;84569.69;;;31.04
60936;BMP280;46804;51.786;19.520;2023-06-01T13:56:56;77659.72;;;31.69
60936;BMP280;46804;51.786;19.520;2023-06-01T14:00:56;83533.84;;;31.14
60936;BMP280;46804;51.786;19.520;2023-06-01T14:04:57;85955.00;;;30.93
60936;BMP280;46804;51.786;19.520;2023-06-01T14:08:58;86645.66;;;30.86
60936;BMP280;46804;51.786;19.520;2023-06-01T14:12:58;85263.00;;;30.99
60936;BMP280;46804;51.786;19.520;2023-06-01T14:16:59;91490.16;;;30.44
60936;BMP280;46804;51.786;19.520;2023-06-01T14:21:00;109856.63;;;28.92
60936;BMP280;46804;51.786;19.520;2023-06-01T14:25:01;103610.09;;;29.40
60936;BMP280;46804;51.786;19.520;2023-06-01T14:29:02;111594.41;;;28.79
60936;BMP280;46804;51.786;19.520;2023-06-01T14:33:02;125149.31;;;27.77
60936;BMP280;46804;51.786;19.520;2023-06-01T14:37:03;130027.38;;;27.44
60936;BMP280;46804;51.786;19.520;2023-06-01T14:41:07;123060.94;;;27.92
60936;BMP280;46804;51.786;19.520;2023-06-01T14:45:08;132814.25;;;27.25
60936;BMP280;46804;51.786;19.520;2023-06-01T14:49:11;129327.66;;;27.48
60936;BMP280;46804;51.786;19.520;2023-06-01T14:53:12;124456.13;;;27.84
60936;BMP280;46804;51.786;19.520;2023-06-01T14:57:13;124107.06;;;27.86
60936;BMP280;46804;51.786;19.520;2023-06-01T15:01:14;129680.13;;;27.47
60936;BMP280;46804;51.786;19.520;2023-06-01T15:05:14;138744.94;;;26.85
60936;BMP280;46804;51.786;19.520;2023-06-01T15:09:15;142587.91;;;26.61
60936;BMP280;46804;51.786;19.520;2023-06-01T15:13:16;141536.91;;;26.66
60936;BMP280;46804;51.786;19.520;2023-06-01T15:17:17;143983.31;;;26.51
60936;BMP280;46804;51.786;19.520;2023-06-01T15:21:18;146428.19;;;26.35
60936;BMP280;46804;51.786;19.520;2023-06-01T15:25:18;148529.44;;;26.23
60936;BMP280;46804;51.786;19.520;2023-06-01T15:29:19;148878.53;;;26.21
60936;BMP280;46804;51.786;19.520;2023-06-01T15:33:20;153222.16;;;25.97
60936;BMP280;46804;51.786;19.520;2023-06-01T15:37:20;153253.38;;;25.95
60936;BMP280;46804;51.786;19.520;2023-06-01T15:41:21;154809.91;;;25.87
60936;BMP280;46804;51.786;19.520;2023-06-01T15:45:22;154075.44;;;25.91
60936;BMP280;46804;51.786;19.520;2023-06-01T15:49:23;157692.06;;;25.64
60936;BMP280;46804;51.786;19.520;2023-06-01T15:53:24;157260.53;;;25.67
60936;BMP280;46804;51.786;19.520;2023-06-01T15:57:24;157887.09;;;25.62
60936;BMP280;46804;51.786;19.520;2023-06-01T16:01:25;160709.53;;;25.21
60936;BMP280;46804;51.786;19.520;2023-06-01T16:05:26;160644.75;;;24.96
60936;BMP280;46804;51.786;19.520;2023-06-01T16:09:27;160621.38;;;24.87
60936;BMP280;46804;51.786;19.520;2023-06-01T16:13:28;160626.63;;;24.89
60936;BMP280;46804;51.786;19.520;2023-06-01T16:17:29;160552.72;;;24.61
60936;BMP280;46804;51.786;19.520;2023-06-01T16:21:29;160554.00;;;24.61
60936;BMP280;46804;51.786;19.520;2023-06-01T16:25:31;160525.50;;;24.51
60936;BMP280;46804;51.786;19.520;2023-06-01T16:29:33;160541.06;;;24.56
60936;BMP280;46804;51.786;19.520;2023-06-01T16:33:34;160447.75;;;24.21
60936;BMP280;46804;51.786;19.520;2023-06-01T16:37:36;160443.84;;;24.20
60936;BMP280;46804;51.786;19.520;2023-06-01T16:41:37;160390.75;;;23.99
60936;BMP280;46804;51.786;19.520;2023-06-01T16:45:38;160349.28;;;23.84
60936;BMP280;46804;51.786;19.520;2023-06-01T16:49:38;160367.44;;;23.90
60936;BMP280;46804;51.786;19.520;2023-06-01T16:53:41;160318.22;;;23.72
60936;BMP280;46804;51.786;19.520;2023-06-01T16:57:44;160306.56;;;23.67
60936;BMP280;46804;51.786;19.520;2023-06-01T17:01:45;160311.75;;;23.69
60936;BMP280;46804;51.786;19.520;2023-06-01T17:05:46;160310.47;;;23.69
60936;BMP280;46804;51.786;19.520;2023-06-01T17:09:47;160293.63;;;23.62
60936;BMP280;46804;51.786;19.520;2023-06-01T17:13:48;160291.03;;;23.61
60936;BMP280;46804;51.786;19.520;2023-06-01T17:17:49;160355.81;;;23.86
60936;BMP280;46804;51.786;19.520;2023-06-01T17:21:50;160323.41;;;23.74
60936;BMP280;46804;51.786;19.520;2023-06-01T17:25:51;160276.81;;;23.56
60936;BMP280;46804;51.786;19.520;2023-06-01T17:29:52;160287.16;;;23.60
60936;BMP280;46804;51.786;19.520;2023-06-01T17:33:53;160244.38;;;23.44
60936;BMP280;46804;51.786;19.520;2023-06-01T17:37:54;160256.03;;;23.48
60936;BMP280;46804;51.786;19.520;2023-06-01T17:41:55;160197.78;;;23.26
60936;BMP280;46804;51.786;19.520;2023-06-01T17:45:56;160122.69;;;22.97
60936;BMP280;46804;51.786;19.520;2023-06-01T17:49:58;160047.59;;;22.69
60936;BMP280;46804;51.786;19.520;2023-06-01T17:53:58;160017.78;;;22.57
60936;BMP280;46804;51.786;19.520;2023-06-01T17:57:59;159957.00;;;22.34
60936;BMP280;46804;51.786;19.520;2023-06-01T18:02:01;159944.03;;;22.29
60936;BMP280;46804;51.786;19.520;2023-06-01T18:06:01;159839.22;;;21.89
60936;BMP280;46804;51.786;19.520;2023-06-01T18:10:04;159803.03;;;21.76
60936;BMP280;46804;51.786;19.520;2023-06-01T18:14:05;159797.84;;;21.74
60936;BMP280;46804;51.786;19.520;2023-06-01T18:18:06;159782.31;;;21.68
60936;BMP280;46804;51.786;19.520;2023-06-01T18:22:07;159784.94;;;21.69
60936;BMP280;46804;51.786;19.520;2023-06-01T18:26:09;159751.31;;;21.56
60936;BMP280;46804;51.786;19.520;2023-06-01T18:30:11;159704.75;;;21.38
60936;BMP280;46804;51.786;19.520;2023-06-01T18:34:12;159695.63;;;21.35
60936;BMP280;46804;51.786;19.520;2023-06-01T18:38:14;159623.22;;;21.07
60936;BMP280;46804;51.786;19.520;2023-06-01T18:42:14;159599.94;;;20.98
60936;BMP280;46804;51.786;19.520;2023-06-01T18:46:16;159571.50;;;20.87
60936;BMP280;46804;51.786;19.520;2023-06-01T18:50:19;159532.72;;;20.73
60936;BMP280;46804;51.786;19.520;2023-06-01T18:54:21;159496.56;;;20.59
60936;BMP280;46804;51.786;19.520;2023-06-01T18:58:22;159448.72;;;20.41
60936;BMP280;46804;51.786;19.520;2023-06-01T19:02:24;159338.84;;;19.99
60936;BMP280;46804;51.786;19.520;2023-06-01T19:06:25;159313.03;;;19.89
60936;BMP280;46804;51.786;19.520;2023-06-01T19:10:55;159239.38;;;19.61
60936;BMP280;46804;51.786;19.520;2023-06-01T19:14:58;159229.03;;;19.57
60936;BMP280;46804;51.786;19.520;2023-06-01T19:18:59;159207.06;;;19.48
60936;BMP280;46804;51.786;19.520;2023-06-01T19:23:09;159178.66;;;19.38
60936;BMP280;46804;51.786;19.520;2023-06-01T19:27:11;159125.72;;;19.17
60936;BMP280;46804;51.786;19.520;2023-06-01T19:31:12;159028.84;;;18.80
60936;BMP280;46804;51.786;19.520;2023-06-01T19:35:15;159035.28;;;18.83
60936;BMP280;46804;51.786;19.520;2023-06-01T19:43:39;158984.94;;;18.64
60936;BMP280;46804;51.786;19.520;2023-06-01T19:47:45;158947.56;;;18.49
60936;BMP280;46804;51.786;19.520;2023-06-01T19:51:46;158898.50;;;18.31
60936;BMP280;46804;51.786;19.520;2023-06-01T19:55:47;158890.75;;;18.28
60936;BMP280;46804;51.786;19.520;2023-06-01T19:59:51;158867.56;;;18.19
60936;BMP280;46804;51.786;19.520;2023-06-01T20:03:52;158859.78;;;18.16
60936;BMP280;46804;51.786;19.520;2023-06-01T20:07:54;158802.94;;;17.94
60936;BMP280;46804;51.786;19.520;2023-06-01T20:11:56;158808.13;;;17.96
60936;BMP280;46804;51.786;19.520;2023-06-01T20:15:58;158743.63;;;17.71
60936;BMP280;46804;51.786;19.520;2023-06-01T20:19:59;158697.22;;;17.54
60936;BMP280;46804;51.786;19.520;2023-06-01T20:24:00;158689.44;;;17.51
60936;BMP280;46804;51.786;19.520;2023-06-01T20:28:06;158659.78;;;17.39
60936;BMP280;46804;51.786;19.520;2023-06-01T20:32:07;158635.31;;;17.30
60936;BMP280;46804;51.786;19.520;2023-06-01T20:36:08;158599.22;;;17.16
60936;BMP280;46804;51.786;19.520;2023-06-01T20:41:15;158560.47;;;17.01
60936;BMP280;46804;51.786;19.520;2023-06-01T20:44:59;158525.66;;;16.88
60936;BMP280;46804;51.786;19.520;2023-06-01T20:49:03;158494.69;;;16.76
60936;BMP280;46804;51.786;19.520;2023-06-01T20:53:07;158459.91;;;16.63
60936;BMP280;46804;51.786;19.520;2023-06-01T20:57:08;158483.09;;;16.72
60936;BMP280;46804;51.786;19.520;2023-06-01T21:01:16;158429.00;;;16.51
60936;BMP280;46804;51.786;19.520;2023-06-01T21:05:20;158435.44;;;16.54
60936;BMP280;46804;51.786;19.520;2023-06-01T21:09:21;158432.81;;;16.53
60936;BMP280;46804;51.786;19.520;2023-06-01T21:13:22;158347.78;;;16.20
60936;BMP280;46804;51.786;19.520;2023-06-01T21:17:22;158381.28;;;16.33
60936;BMP280;46804;51.786;19.520;2023-06-01T21:21:23;158377.44;;;16.32
60936;BMP280;46804;51.786;19.520;2023-06-01T21:25:24;158367.13;;;16.28
60936;BMP280;46804;51.786;19.520;2023-06-01T21:29:25;158312.94;;;16.07
60936;BMP280;46804;51.786;19.520;2023-06-01T21:33:26;158297.50;;;16.01
60936;BMP280;46804;51.786;19.520;2023-06-01T21:37:26;158291.03;;;15.98
60936;BMP280;46804;51.786;19.520;2023-06-01T21:41:27;158284.59;;;15.96
60936;BMP280;46804;51.786;19.520;2023-06-01T21:45:28;158253.69;;;15.84
60936;BMP280;46804;51.786;19.520;2023-06-01T21:49:28;158226.63;;;15.74
60936;BMP280;46804;51.786;19.520;2023-06-01T21:53:29;158234.38;;;15.77
60936;BMP280;46804;51.786;19.520;2023-06-01T21:57:30;158182.81;;;15.57
60936;BMP280;46804;51.786;19.520;2023-06-01T22:01:31;158206.06;;;15.66
60936;BMP280;46804;51.786;19.520;2023-06-01T22:05:33;158140.34;;;15.41
60936;BMP280;46804;51.786;19.520;2023-06-01T22:09:34;158137.78;;;15.40
60936;BMP280;46804;51.786;19.520;2023-06-01T22:13:35;158081.13;;;15.18
60936;BMP280;46804;51.786;19.520;2023-06-01T22:17:37;158059.19;;;15.10
60936;BMP280;46804;51.786;19.520;2023-06-01T22:21:37;158066.94;;;15.13
60936;BMP280;46804;51.786;19.520;2023-06-01T22:25:38;158032.13;;;14.99
60936;BMP280;46804;51.786;19.520;2023-06-01T22:29:39;158025.69;;;14.97
60936;BMP280;46804;51.786;19.520;2023-06-01T22:33:40;158020.56;;;14.95
60936;BMP280;46804;51.786;19.520;2023-06-01T22:37:40;157976.75;;;14.78
60936;BMP280;46804;51.786;19.520;2023-06-01T22:41:41;157936.88;;;14.63
60936;BMP280;46804;51.786;19.520;2023-06-01T22:45:41;157958.75;;;14.71
60936;BMP280;46804;51.786;19.520;2023-06-01T22:49:43;157906.00;;;14.51
60936;BMP280;46804;51.786;19.520;2023-06-01T22:53:46;157922.72;;;14.58
60936;BMP280;46804;51.786;19.520;2023-06-01T22:57:47;157900.84;;;14.49
60936;BMP280;46804;51.786;19.520;2023-06-01T23:01:48;157835.19;;;14.24
60936;BMP280;46804;51.786;19.520;2023-06-01T23:05:48;157817.19;;;14.17
60936;BMP280;46804;51.786;19.520;2023-06-01T23:09:50;157800.44;;;14.11